sensor_id;sensor_type;location;lat;lon;timestamp;P1;durP1;ratioP1;P2;durP2;ratioP2
22746;SDS011;11540;52.130;5.648;2022-07-29T00:01:18;4.25;;;1.52;;
22746;SDS011;11540;52.130;5.648;2022-07-29T00:03:43;3.38;;;1.40;;
22746;SDS011;11540;52.130;5.648;2022-07-29T00:06:09;4.85;;;1.67;;
22746;SDS011;11540;52.130;5.648;2022-07-29T00:08:35;2.90;;;1.40;;
22746;SDS011;11540;52.130;5.648;2022-07-29T00:11:00;4.78;;;1.52;;
22746;SDS011;11540;52.130;5.648;2022-07-29T00:13:26;4.40;;;1.77;;
22746;SDS011;11540;52.130;5.648;2022-07-29T00:15:51;4.82;;;1.45;;
22746;SDS011;11540;52.130;5.648;2022-07-29T00:18:17;6.60;;;1.58;;
22746;SDS011;11540;52.130;5.648;2022-07-29T00:20:42;3.50;;;1.58;;
22746;SDS011;11540;52.130;5.648;2022-07-29T00:23:08;5.05;;;1.60;;
22746;SDS011;11540;52.130;5.648;2022-07-29T00:25:33;4.57;;;1.40;;
22746;SDS011;11540;52.130;5.648;2022-07-29T00:27:59;2.67;;;1.40;;
22746;SDS011;11540;52.130;5.648;2022-07-29T00:30:24;4.20;;;1.58;;
22746;SDS011;11540;52.130;5.648;2022-07-29T00:32:50;2.45;;;1.40;;
22746;SDS011;11540;52.130;5.648;2022-07-29T00:35:15;4.15;;;1.50;;
22746;SDS011;11540;52.130;5.648;2022-07-29T00:37:59;3.42;;;1.63;;
22746;SDS011;11540;52.130;5.648;2022-07-29T00:40:25;3.92;;;1.60;;
22746;SDS011;11540;52.130;5.648;2022-07-29T00:42:51;4.13;;;1.60;;
22746;SDS011;11540;52.130;5.648;2022-07-29T00:45:17;3.20;;;1.20;;
22746;SDS011;11540;52.130;5.648;2022-07-29T00:47:43;2.78;;;1.40;;
22746;SDS011;11540;52.130;5.648;2022-07-29T00:50:10;2.75;;;1.60;;
22746;SDS011;11540;52.130;5.648;2022-07-29T00:52:38;5.07;;;1.58;;
22746;SDS011;11540;52.130;5.648;2022-07-29T00:55:05;3.25;;;1.70;;
22746;SDS011;11540;52.130;5.648;2022-07-29T00:57:32;4.20;;;1.50;;
22746;SDS011;11540;52.130;5.648;2022-07-29T00:59:59;2.47;;;1.30;;
22746;SDS011;11540;52.130;5.648;2022-07-29T01:02:25;3.75;;;1.27;;
22746;SDS011;11540;52.130;5.648;2022-07-29T01:04:50;5.50;;;1.70;;
22746;SDS011;11540;52.130;5.648;2022-07-29T01:07:16;4.32;;;1.25;;
22746;SDS011;11540;52.130;5.648;2022-07-29T01:09:43;3.53;;;1.88;;
22746;SDS011;11540;52.130;5.648;2022-07-29T01:12:10;6.35;;;1.60;;
22746;SDS011;11540;52.130;5.648;2022-07-29T01:14:37;4.57;;;2.05;;
22746;SDS011;11540;52.130;5.648;2022-07-29T01:17:07;4.75;;;1.60;;
22746;SDS011;11540;52.130;5.648;2022-07-29T01:19:44;2.40;;;1.80;;
22746;SDS011;11540;52.130;5.648;2022-07-29T01:22:27;2.78;;;1.45;;
22746;SDS011;11540;52.130;5.648;2022-07-29T01:25:03;4.22;;;1.63;;
22746;SDS011;11540;52.130;5.648;2022-07-29T01:30:12;3.25;;;1.40;;
22746;SDS011;11540;52.130;5.648;2022-07-29T01:32:38;3.05;;;1.58;;
22746;SDS011;11540;52.130;5.648;2022-07-29T01:40:22;4.03;;;1.65;;
22746;SDS011;11540;52.130;5.648;2022-07-29T01:42:56;5.38;;;1.67;;
22746;SDS011;11540;52.130;5.648;2022-07-29T01:45:37;5.55;;;1.80;;
22746;SDS011;11540;52.130;5.648;2022-07-29T01:48:21;5.22;;;1.95;;
22746;SDS011;11540;52.130;5.648;2022-07-29T01:50:53;3.08;;;1.83;;
22746;SDS011;11540;52.130;5.648;2022-07-29T01:53:38;4.57;;;2.00;;
22746;SDS011;11540;52.130;5.648;2022-07-29T01:56:10;2.92;;;1.95;;
22746;SDS011;11540;52.130;5.648;2022-07-29T01:58:39;2.95;;;2.03;;
22746;SDS011;11540;52.130;5.648;2022-07-29T02:01:06;3.15;;;2.00;;
22746;SDS011;11540;52.130;5.648;2022-07-29T02:03:34;3.90;;;2.03;;
22746;SDS011;11540;52.130;5.648;2022-07-29T02:06:02;6.20;;;2.00;;
22746;SDS011;11540;52.130;5.648;2022-07-29T02:08:31;5.00;;;2.40;;
22746;SDS011;11540;52.130;5.648;2022-07-29T02:10:58;4.95;;;2.33;;
22746;SDS011;11540;52.130;5.648;2022-07-29T02:13:25;5.20;;;2.08;;
22746;SDS011;11540;52.130;5.648;2022-07-29T02:15:53;4.63;;;2.25;;
22746;SDS011;11540;52.130;5.648;2022-07-29T02:18:22;6.35;;;2.13;;
22746;SDS011;11540;52.130;5.648;2022-07-29T02:20:52;5.38;;;2.35;;
22746;SDS011;11540;52.130;5.648;2022-07-29T02:23:21;3.88;;;2.25;;
22746;SDS011;11540;52.130;5.648;2022-07-29T02:25:49;2.10;;;1.90;;
22746;SDS011;11540;52.130;5.648;2022-07-29T02:28:17;6.25;;;2.30;;
22746;SDS011;11540;52.130;5.648;2022-07-29T02:30:44;4.57;;;2.25;;
22746;SDS011;11540;52.130;5.648;2022-07-29T02:33:13;5.85;;;2.30;;
22746;SDS011;11540;52.130;5.648;2022-07-29T02:35:41;2.42;;;1.92;;
22746;SDS011;11540;52.130;5.648;2022-07-29T02:38:11;3.47;;;2.05;;
22746;SDS011;11540;52.130;5.648;2022-07-29T02:40:58;3.70;;;2.38;;
22746;SDS011;11540;52.130;5.648;2022-07-29T02:43:26;3.65;;;2.00;;
22746;SDS011;11540;52.130;5.648;2022-07-29T02:45:52;5.40;;;1.80;;
22746;SDS011;11540;52.130;5.648;2022-07-29T02:48:22;4.72;;;2.40;;
22746;SDS011;11540;52.130;5.648;2022-07-29T02:51:01;4.57;;;2.13;;
22746;SDS011;11540;52.130;5.648;2022-07-29T02:53:36;2.72;;;1.83;;
22746;SDS011;11540;52.130;5.648;2022-07-29T02:56:13;3.85;;;1.77;;
22746;SDS011;11540;52.130;5.648;2022-07-29T02:58:42;4.47;;;2.00;;
22746;SDS011;11540;52.130;5.648;2022-07-29T03:01:20;3.40;;;2.08;;
22746;SDS011;11540;52.130;5.648;2022-07-29T03:03:48;5.20;;;2.00;;
22746;SDS011;11540;52.130;5.648;2022-07-29T03:06:16;6.43;;;2.20;;
22746;SDS011;11540;52.130;5.648;2022-07-29T03:08:44;6.25;;;1.92;;
22746;SDS011;11540;52.130;5.648;2022-07-29T03:11:11;7.35;;;2.25;;
22746;SDS011;11540;52.130;5.648;2022-07-29T03:13:37;4.72;;;2.38;;
22746;SDS011;11540;52.130;5.648;2022-07-29T03:16:04;4.32;;;1.95;;
22746;SDS011;11540;52.130;5.648;2022-07-29T03:18:30;4.47;;;2.13;;
22746;SDS011;11540;52.130;5.648;2022-07-29T03:20:56;4.93;;;2.53;;
22746;SDS011;11540;52.130;5.648;2022-07-29T03:23:22;5.55;;;2.40;;
22746;SDS011;11540;52.130;5.648;2022-07-29T03:25:51;4.97;;;2.13;;
22746;SDS011;11540;52.130;5.648;2022-07-29T03:28:18;2.90;;;2.00;;
22746;SDS011;11540;52.130;5.648;2022-07-29T03:30:44;4.55;;;2.47;;
22746;SDS011;11540;52.130;5.648;2022-07-29T03:33:10;4.18;;;2.13;;
22746;SDS011;11540;52.130;5.648;2022-07-29T03:35:36;4.88;;;2.67;;
22746;SDS011;11540;52.130;5.648;2022-07-29T03:38:02;5.20;;;2.05;;
22746;SDS011;11540;52.130;5.648;2022-07-29T03:40:31;4.50;;;2.40;;
22746;SDS011;11540;52.130;5.648;2022-07-29T03:43:01;6.03;;;2.30;;
22746;SDS011;11540;52.130;5.648;2022-07-29T03:45:28;3.70;;;2.10;;
22746;SDS011;11540;52.130;5.648;2022-07-29T03:47:57;3.40;;;2.00;;
22746;SDS011;11540;52.130;5.648;2022-07-29T03:50:26;3.65;;;1.80;;
22746;SDS011;11540;52.130;5.648;2022-07-29T03:52:53;3.40;;;1.90;;
22746;SDS011;11540;52.130;5.648;2022-07-29T03:55:19;5.07;;;1.90;;
22746;SDS011;11540;52.130;5.648;2022-07-29T03:57:45;4.03;;;1.80;;
22746;SDS011;11540;52.130;5.648;2022-07-29T04:00:12;3.22;;;2.20;;
22746;SDS011;11540;52.130;5.648;2022-07-29T04:02:38;7.10;;;2.13;;
22746;SDS011;11540;52.130;5.648;2022-07-29T04:05:05;4.25;;;1.70;;
22746;SDS011;11540;52.130;5.648;2022-07-29T04:07:36;6.75;;;2.10;;
22746;SDS011;11540;52.130;5.648;2022-07-29T04:10:01;4.07;;;2.20;;
22746;SDS011;11540;52.130;5.648;2022-07-29T04:12:27;4.93;;;2.15;;
22746;SDS011;11540;52.130;5.648;2022-07-29T04:14:53;7.43;;;2.25;;
22746;SDS011;11540;52.130;5.648;2022-07-29T04:17:18;5.05;;;2.10;;
22746;SDS011;11540;52.130;5.648;2022-07-29T04:19:44;3.38;;;2.00;;
22746;SDS011;11540;52.130;5.648;2022-07-29T04:22:10;7.60;;;2.20;;
22746;SDS011;11540;52.130;5.648;2022-07-29T04:24:35;2.97;;;1.90;;
22746;SDS011;11540;52.130;5.648;2022-07-29T04:27:01;4.07;;;1.90;;
22746;SDS011;11540;52.130;5.648;2022-07-29T04:29:26;6.53;;;2.17;;
22746;SDS011;11540;52.130;5.648;2022-07-29T04:31:52;4.68;;;2.10;;
22746;SDS011;11540;52.130;5.648;2022-07-29T04:34:17;7.40;;;2.10;;
22746;SDS011;11540;52.130;5.648;2022-07-29T04:36:43;3.30;;;1.92;;
22746;SDS011;11540;52.130;5.648;2022-07-29T04:39:08;3.05;;;1.95;;
22746;SDS011;11540;52.130;5.648;2022-07-29T04:41:35;2.58;;;2.03;;
22746;SDS011;11540;52.130;5.648;2022-07-29T04:44:00;2.75;;;1.77;;
22746;SDS011;11540;52.130;5.648;2022-07-29T04:46:29;3.50;;;1.63;;
22746;SDS011;11540;52.130;5.648;2022-07-29T04:48:55;2.85;;;1.80;;
22746;SDS011;11540;52.130;5.648;2022-07-29T04:51:21;5.47;;;2.08;;
22746;SDS011;11540;52.130;5.648;2022-07-29T04:53:46;5.35;;;2.22;;
22746;SDS011;11540;52.130;5.648;2022-07-29T04:56:12;4.25;;;2.15;;
22746;SDS011;11540;52.130;5.648;2022-07-29T04:58:37;5.78;;;2.10;;
22746;SDS011;11540;52.130;5.648;2022-07-29T05:01:03;3.72;;;2.00;;
22746;SDS011;11540;52.130;5.648;2022-07-29T05:03:29;4.50;;;2.10;;
22746;SDS011;11540;52.130;5.648;2022-07-29T05:05:54;3.70;;;1.90;;
22746;SDS011;11540;52.130;5.648;2022-07-29T05:08:20;5.63;;;2.20;;
22746;SDS011;11540;52.130;5.648;2022-07-29T05:10:45;4.55;;;2.10;;
22746;SDS011;11540;52.130;5.648;2022-07-29T05:13:11;6.82;;;2.10;;
22746;SDS011;11540;52.130;5.648;2022-07-29T05:15:37;3.35;;;2.08;;
22746;SDS011;11540;52.130;5.648;2022-07-29T05:18:03;6.05;;;2.58;;
22746;SDS011;11540;52.130;5.648;2022-07-29T05:20:29;4.68;;;2.28;;
22746;SDS011;11540;52.130;5.648;2022-07-29T05:22:56;4.03;;;2.08;;
22746;SDS011;11540;52.130;5.648;2022-07-29T05:25:23;2.95;;;2.40;;
22746;SDS011;11540;52.130;5.648;2022-07-29T05:27:49;4.15;;;2.58;;
22746;SDS011;11540;52.130;5.648;2022-07-29T05:30:15;5.47;;;2.30;;
22746;SDS011;11540;52.130;5.648;2022-07-29T05:32:41;4.05;;;2.60;;
22746;SDS011;11540;52.130;5.648;2022-07-29T05:35:06;3.63;;;2.30;;
22746;SDS011;11540;52.130;5.648;2022-07-29T05:37:33;4.40;;;2.38;;
22746;SDS011;11540;52.130;5.648;2022-07-29T05:39:58;2.75;;;2.35;;
22746;SDS011;11540;52.130;5.648;2022-07-29T05:42:24;3.20;;;2.20;;
22746;SDS011;11540;52.130;5.648;2022-07-29T05:44:50;5.32;;;2.10;;
22746;SDS011;11540;52.130;5.648;2022-07-29T05:47:16;3.83;;;2.10;;
22746;SDS011;11540;52.130;5.648;2022-07-29T05:49:42;3.78;;;2.38;;
22746;SDS011;11540;52.130;5.648;2022-07-29T05:52:08;4.32;;;2.20;;
22746;SDS011;11540;52.130;5.648;2022-07-29T05:54:34;5.13;;;2.30;;
22746;SDS011;11540;52.130;5.648;2022-07-29T05:56:59;3.38;;;2.22;;
22746;SDS011;11540;52.130;5.648;2022-07-29T05:59:25;3.03;;;2.10;;
22746;SDS011;11540;52.130;5.648;2022-07-29T06:01:51;3.95;;;2.50;;
22746;SDS011;11540;52.130;5.648;2022-07-29T06:04:17;3.63;;;2.20;;
22746;SDS011;11540;52.130;5.648;2022-07-29T06:06:42;11.27;;;2.55;;
22746;SDS011;11540;52.130;5.648;2022-07-29T06:09:08;5.22;;;2.50;;
22746;SDS011;11540;52.130;5.648;2022-07-29T06:11:33;6.55;;;2.35;;
22746;SDS011;11540;52.130;5.648;2022-07-29T06:13:59;3.55;;;2.15;;
22746;SDS011;11540;52.130;5.648;2022-07-29T06:16:24;4.13;;;2.53;;
22746;SDS011;11540;52.130;5.648;2022-07-29T06:18:50;3.67;;;2.28;;
22746;SDS011;11540;52.130;5.648;2022-07-29T06:21:15;3.72;;;2.47;;
22746;SDS011;11540;52.130;5.648;2022-07-29T06:23:41;5.43;;;2.50;;
22746;SDS011;11540;52.130;5.648;2022-07-29T06:26:07;4.30;;;2.58;;
22746;SDS011;11540;52.130;5.648;2022-07-29T06:28:33;4.63;;;2.70;;
22746;SDS011;11540;52.130;5.648;2022-07-29T06:30:59;3.05;;;2.33;;
22746;SDS011;11540;52.130;5.648;2022-07-29T06:33:24;3.13;;;2.67;;
22746;SDS011;11540;52.130;5.648;2022-07-29T06:35:50;8.52;;;2.90;;
22746;SDS011;11540;52.130;5.648;2022-07-29T06:38:15;7.07;;;2.42;;
22746;SDS011;11540;52.130;5.648;2022-07-29T06:40:44;7.57;;;2.80;;
22746;SDS011;11540;52.130;5.648;2022-07-29T06:43:31;4.60;;;2.47;;
22746;SDS011;11540;52.130;5.648;2022-07-29T06:46:02;2.90;;;2.47;;
22746;SDS011;11540;52.130;5.648;2022-07-29T06:48:30;6.72;;;2.67;;
22746;SDS011;11540;52.130;5.648;2022-07-29T06:50:56;6.47;;;2.85;;
22746;SDS011;11540;52.130;5.648;2022-07-29T06:53:22;5.60;;;2.83;;
22746;SDS011;11540;52.130;5.648;2022-07-29T06:55:47;4.97;;;2.33;;
22746;SDS011;11540;52.130;5.648;2022-07-29T06:58:13;3.83;;;2.65;;
22746;SDS011;11540;52.130;5.648;2022-07-29T07:00:40;5.55;;;2.50;;
22746;SDS011;11540;52.130;5.648;2022-07-29T07:03:06;3.35;;;2.33;;
22746;SDS011;11540;52.130;5.648;2022-07-29T07:05:32;5.78;;;2.80;;
22746;SDS011;11540;52.130;5.648;2022-07-29T07:07:58;5.28;;;2.45;;
22746;SDS011;11540;52.130;5.648;2022-07-29T07:10:23;5.80;;;3.03;;
22746;SDS011;11540;52.130;5.648;2022-07-29T07:12:49;5.05;;;3.20;;
22746;SDS011;11540;52.130;5.648;2022-07-29T07:15:14;3.05;;;2.72;;
22746;SDS011;11540;52.130;5.648;2022-07-29T07:17:40;5.05;;;2.65;;
22746;SDS011;11540;52.130;5.648;2022-07-29T07:20:06;3.47;;;2.60;;
22746;SDS011;11540;52.130;5.648;2022-07-29T07:22:32;3.72;;;2.90;;
22746;SDS011;11540;52.130;5.648;2022-07-29T07:24:57;4.60;;;2.75;;
22746;SDS011;11540;52.130;5.648;2022-07-29T07:27:23;4.13;;;2.63;;
22746;SDS011;11540;52.130;5.648;2022-07-29T07:29:48;6.68;;;2.50;;
22746;SDS011;11540;52.130;5.648;2022-07-29T07:32:14;7.25;;;3.05;;
22746;SDS011;11540;52.130;5.648;2022-07-29T07:34:41;5.57;;;2.75;;
22746;SDS011;11540;52.130;5.648;2022-07-29T07:37:07;5.90;;;2.92;;
22746;SDS011;11540;52.130;5.648;2022-07-29T07:39:33;6.65;;;2.70;;
22746;SDS011;11540;52.130;5.648;2022-07-29T07:41:59;4.65;;;3.00;;
22746;SDS011;11540;52.130;5.648;2022-07-29T07:44:25;5.32;;;2.40;;
22746;SDS011;11540;52.130;5.648;2022-07-29T07:46:50;7.15;;;2.83;;
22746;SDS011;11540;52.130;5.648;2022-07-29T07:49:16;4.47;;;2.83;;
22746;SDS011;11540;52.130;5.648;2022-07-29T07:51:42;3.20;;;2.40;;
22746;SDS011;11540;52.130;5.648;2022-07-29T07:54:07;4.68;;;2.88;;
22746;SDS011;11540;52.130;5.648;2022-07-29T07:56:33;5.88;;;2.85;;
22746;SDS011;11540;52.130;5.648;2022-07-29T07:58:58;3.25;;;2.22;;
22746;SDS011;11540;52.130;5.648;2022-07-29T08:01:24;5.07;;;2.92;;
22746;SDS011;11540;52.130;5.648;2022-07-29T08:03:49;3.67;;;2.25;;
22746;SDS011;11540;52.130;5.648;2022-07-29T08:06:15;4.25;;;2.60;;
22746;SDS011;11540;52.130;5.648;2022-07-29T08:08:40;7.50;;;2.72;;
22746;SDS011;11540;52.130;5.648;2022-07-29T08:11:06;5.70;;;2.50;;
22746;SDS011;11540;52.130;5.648;2022-07-29T08:13:32;4.90;;;2.47;;
22746;SDS011;11540;52.130;5.648;2022-07-29T08:15:58;5.93;;;2.40;;
22746;SDS011;11540;52.130;5.648;2022-07-29T08:18:36;6.22;;;2.47;;
22746;SDS011;11540;52.130;5.648;2022-07-29T08:21:01;5.60;;;2.53;;
22746;SDS011;11540;52.130;5.648;2022-07-29T08:23:27;6.75;;;2.53;;
22746;SDS011;11540;52.130;5.648;2022-07-29T08:25:59;4.93;;;2.70;;
22746;SDS011;11540;52.130;5.648;2022-07-29T08:28:25;3.88;;;2.65;;
22746;SDS011;11540;52.130;5.648;2022-07-29T08:30:51;4.30;;;2.55;;
22746;SDS011;11540;52.130;5.648;2022-07-29T08:33:17;3.35;;;2.60;;
22746;SDS011;11540;52.130;5.648;2022-07-29T08:35:43;5.45;;;1.92;;
22746;SDS011;11540;52.130;5.648;2022-07-29T08:38:08;5.20;;;2.42;;
22746;SDS011;11540;52.130;5.648;2022-07-29T08:40:34;5.28;;;2.50;;
22746;SDS011;11540;52.130;5.648;2022-07-29T08:43:04;4.05;;;2.35;;
22746;SDS011;11540;52.130;5.648;2022-07-29T08:45:41;5.65;;;2.20;;
22746;SDS011;11540;52.130;5.648;2022-07-29T08:48:09;3.78;;;2.28;;
22746;SDS011;11540;52.130;5.648;2022-07-29T08:50:36;5.93;;;2.15;;
22746;SDS011;11540;52.130;5.648;2022-07-29T08:53:04;4.88;;;2.00;;
22746;SDS011;11540;52.130;5.648;2022-07-29T08:55:31;4.65;;;1.80;;
22746;SDS011;11540;52.130;5.648;2022-07-29T08:57:57;5.63;;;2.13;;
22746;SDS011;11540;52.130;5.648;2022-07-29T09:00:24;3.47;;;1.88;;
22746;SDS011;11540;52.130;5.648;2022-07-29T09:02:51;4.00;;;1.92;;
22746;SDS011;11540;52.130;5.648;2022-07-29T09:05:22;3.60;;;2.20;;
22746;SDS011;11540;52.130;5.648;2022-07-29T09:07:48;5.38;;;2.25;;
22746;SDS011;11540;52.130;5.648;2022-07-29T09:10:15;5.28;;;2.20;;
22746;SDS011;11540;52.130;5.648;2022-07-29T09:12:40;6.97;;;2.30;;
22746;SDS011;11540;52.130;5.648;2022-07-29T09:15:06;4.65;;;2.00;;
22746;SDS011;11540;52.130;5.648;2022-07-29T09:17:42;4.30;;;2.00;;
22746;SDS011;11540;52.130;5.648;2022-07-29T09:20:10;5.10;;;2.17;;
22746;SDS011;11540;52.130;5.648;2022-07-29T09:22:36;4.10;;;2.17;;
22746;SDS011;11540;52.130;5.648;2022-07-29T09:25:02;8.02;;;1.90;;
22746;SDS011;11540;52.130;5.648;2022-07-29T09:27:28;9.85;;;2.75;;
22746;SDS011;11540;52.130;5.648;2022-07-29T09:29:57;4.32;;;2.22;;
22746;SDS011;11540;52.130;5.648;2022-07-29T09:32:24;5.63;;;2.17;;
22746;SDS011;11540;52.130;5.648;2022-07-29T09:34:51;7.65;;;2.20;;
22746;SDS011;11540;52.130;5.648;2022-07-29T09:37:36;12.23;;;2.55;;
22746;SDS011;11540;52.130;5.648;2022-07-29T09:40:10;3.95;;;2.45;;
22746;SDS011;11540;52.130;5.648;2022-07-29T09:42:37;3.60;;;1.83;;
22746;SDS011;11540;52.130;5.648;2022-07-29T09:45:03;6.32;;;1.88;;
22746;SDS011;11540;52.130;5.648;2022-07-29T09:47:43;3.30;;;2.20;;
22746;SDS011;11540;52.130;5.648;2022-07-29T09:50:11;5.97;;;2.03;;
22746;SDS011;11540;52.130;5.648;2022-07-29T09:52:45;4.60;;;1.98;;
22746;SDS011;11540;52.130;5.648;2022-07-29T09:55:12;8.50;;;2.30;;
22746;SDS011;11540;52.130;5.648;2022-07-29T09:57:38;6.07;;;2.13;;
22746;SDS011;11540;52.130;5.648;2022-07-29T10:00:05;6.93;;;1.90;;
22746;SDS011;11540;52.130;5.648;2022-07-29T10:02:32;6.25;;;1.98;;
22746;SDS011;11540;52.130;5.648;2022-07-29T10:05:00;5.35;;;1.80;;
22746;SDS011;11540;52.130;5.648;2022-07-29T10:07:27;3.88;;;1.88;;
22746;SDS011;11540;52.130;5.648;2022-07-29T10:10:22;6.05;;;1.85;;
22746;SDS011;11540;52.130;5.648;2022-07-29T10:12:56;4.28;;;1.90;;
22746;SDS011;11540;52.130;5.648;2022-07-29T10:15:26;8.07;;;2.40;;
22746;SDS011;11540;52.130;5.648;2022-07-29T10:17:53;5.78;;;2.80;;
22746;SDS011;11540;52.130;5.648;2022-07-29T10:20:20;7.75;;;2.97;;
22746;SDS011;11540;52.130;5.648;2022-07-29T10:22:47;21.50;;;3.35;;
22746;SDS011;11540;52.130;5.648;2022-07-29T10:25:14;12.45;;;3.58;;
22746;SDS011;11540;52.130;5.648;2022-07-29T10:27:40;11.25;;;3.25;;
22746;SDS011;11540;52.130;5.648;2022-07-29T10:30:06;5.40;;;2.90;;
22746;SDS011;11540;52.130;5.648;2022-07-29T10:32:39;7.05;;;2.90;;
22746;SDS011;11540;52.130;5.648;2022-07-29T10:38:03;6.95;;;2.85;;
22746;SDS011;11540;52.130;5.648;2022-07-29T10:40:42;7.00;;;2.28;;
22746;SDS011;11540;52.130;5.648;2022-07-29T10:43:37;7.75;;;2.38;;
22746;SDS011;11540;52.130;5.648;2022-07-29T10:46:07;9.02;;;2.90;;
22746;SDS011;11540;52.130;5.648;2022-07-29T10:48:33;8.05;;;2.38;;
22746;SDS011;11540;52.130;5.648;2022-07-29T10:51:00;4.57;;;1.95;;
22746;SDS011;11540;52.130;5.648;2022-07-29T10:53:48;4.53;;;2.17;;
22746;SDS011;11540;52.130;5.648;2022-07-29T10:56:25;4.47;;;2.33;;
22746;SDS011;11540;52.130;5.648;2022-07-29T11:01:42;7.60;;;2.65;;
22746;SDS011;11540;52.130;5.648;2022-07-29T11:04:08;6.40;;;2.78;;
22746;SDS011;11540;52.130;5.648;2022-07-29T11:09:27;6.15;;;1.80;;
22746;SDS011;11540;52.130;5.648;2022-07-29T11:11:55;6.28;;;2.10;;
22746;SDS011;11540;52.130;5.648;2022-07-29T11:17:21;4.80;;;1.50;;
22746;SDS011;11540;52.130;5.648;2022-07-29T11:19:46;5.72;;;1.50;;
22746;SDS011;11540;52.130;5.648;2022-07-29T11:22:31;3.65;;;1.70;;
22746;SDS011;11540;52.130;5.648;2022-07-29T11:25:16;6.65;;;2.13;;
22746;SDS011;11540;52.130;5.648;2022-07-29T11:27:44;3.65;;;1.85;;
22746;SDS011;11540;52.130;5.648;2022-07-29T11:30:09;13.45;;;2.30;;
22746;SDS011;11540;52.130;5.648;2022-07-29T11:32:38;4.57;;;1.70;;
22746;SDS011;11540;52.130;5.648;2022-07-29T11:35:14;10.95;;;2.08;;
22746;SDS011;11540;52.130;5.648;2022-07-29T11:37:42;5.88;;;1.63;;
22746;SDS011;11540;52.130;5.648;2022-07-29T11:40:09;7.95;;;2.33;;
22746;SDS011;11540;52.130;5.648;2022-07-29T11:42:37;8.10;;;2.47;;
22746;SDS011;11540;52.130;5.648;2022-07-29T11:45:13;7.43;;;1.80;;
22746;SDS011;11540;52.130;5.648;2022-07-29T13:22:29;9.20;;;2.83;;
22746;SDS011;11540;52.130;5.648;2022-07-29T13:24:58;9.23;;;3.28;;
22746;SDS011;11540;52.130;5.648;2022-07-29T13:27:29;10.88;;;3.20;;
22746;SDS011;11540;52.130;5.648;2022-07-29T13:30:01;6.97;;;3.30;;
22746;SDS011;11540;52.130;5.648;2022-07-29T13:32:29;9.20;;;3.30;;
22746;SDS011;11540;52.130;5.648;2022-07-29T13:34:56;15.60;;;4.35;;
22746;SDS011;11540;52.130;5.648;2022-07-29T13:37:23;8.77;;;3.65;;
22746;SDS011;11540;52.130;5.648;2022-07-29T13:39:49;14.93;;;3.55;;
22746;SDS011;11540;52.130;5.648;2022-07-29T13:42:14;7.10;;;2.40;;
22746;SDS011;11540;52.130;5.648;2022-07-29T13:44:40;5.88;;;3.50;;
22746;SDS011;11540;52.130;5.648;2022-07-29T13:47:07;15.10;;;3.50;;
22746;SDS011;11540;52.130;5.648;2022-07-29T13:49:32;18.83;;;3.85;;
22746;SDS011;11540;52.130;5.648;2022-07-29T13:51:59;9.80;;;3.50;;
22746;SDS011;11540;52.130;5.648;2022-07-29T13:54:24;14.63;;;3.75;;
22746;SDS011;11540;52.130;5.648;2022-07-29T13:56:50;17.30;;;3.92;;
22746;SDS011;11540;52.130;5.648;2022-07-29T13:59:16;14.95;;;3.40;;
22746;SDS011;11540;52.130;5.648;2022-07-29T14:01:41;10.63;;;3.55;;
22746;SDS011;11540;52.130;5.648;2022-07-29T14:04:08;9.35;;;2.80;;
22746;SDS011;11540;52.130;5.648;2022-07-29T14:06:35;5.57;;;2.50;;
22746;SDS011;11540;52.130;5.648;2022-07-29T14:09:01;6.32;;;2.45;;
22746;SDS011;11540;52.130;5.648;2022-07-29T14:11:27;3.72;;;2.20;;
22746;SDS011;11540;52.130;5.648;2022-07-29T14:13:53;19.42;;;2.35;;
22746;SDS011;11540;52.130;5.648;2022-07-29T14:16:18;6.25;;;2.17;;
22746;SDS011;11540;52.130;5.648;2022-07-29T14:18:44;15.23;;;3.30;;
22746;SDS011;11540;52.130;5.648;2022-07-29T14:21:09;10.02;;;2.67;;
22746;SDS011;11540;52.130;5.648;2022-07-29T14:23:36;4.82;;;2.17;;
22746;SDS011;11540;52.130;5.648;2022-07-29T14:26:01;11.32;;;2.20;;
22746;SDS011;11540;52.130;5.648;2022-07-29T14:28:27;5.55;;;2.08;;
22746;SDS011;11540;52.130;5.648;2022-07-29T14:30:52;8.65;;;1.88;;
22746;SDS011;11540;52.130;5.648;2022-07-29T14:33:18;31.23;;;3.72;;
22746;SDS011;11540;52.130;5.648;2022-07-29T14:35:44;20.52;;;2.35;;
22746;SDS011;11540;52.130;5.648;2022-07-29T14:38:09;7.07;;;2.50;;
22746;SDS011;11540;52.130;5.648;2022-07-29T14:40:35;3.58;;;1.90;;
22746;SDS011;11540;52.130;5.648;2022-07-29T14:43:01;15.50;;;2.65;;
22746;SDS011;11540;52.130;5.648;2022-07-29T14:45:27;11.93;;;2.35;;
22746;SDS011;11540;52.130;5.648;2022-07-29T14:47:53;13.77;;;2.83;;
22746;SDS011;11540;52.130;5.648;2022-07-29T14:50:19;9.70;;;2.40;;
22746;SDS011;11540;52.130;5.648;2022-07-29T14:52:44;6.35;;;1.98;;
22746;SDS011;11540;52.130;5.648;2022-07-29T14:55:10;5.80;;;2.20;;
22746;SDS011;11540;52.130;5.648;2022-07-29T14:57:35;9.32;;;2.67;;
22746;SDS011;11540;52.130;5.648;2022-07-29T15:00:02;13.27;;;2.90;;
22746;SDS011;11540;52.130;5.648;2022-07-29T15:02:29;14.23;;;3.15;;
22746;SDS011;11540;52.130;5.648;2022-07-29T15:04:54;8.60;;;2.60;;
22746;SDS011;11540;52.130;5.648;2022-07-29T15:07:20;11.98;;;2.40;;
22746;SDS011;11540;52.130;5.648;2022-07-29T15:09:46;3.45;;;1.80;;
22746;SDS011;11540;52.130;5.648;2022-07-29T15:12:12;10.27;;;2.03;;
22746;SDS011;11540;52.130;5.648;2022-07-29T15:14:38;9.95;;;2.10;;
22746;SDS011;11540;52.130;5.648;2022-07-29T15:17:03;7.57;;;2.10;;
22746;SDS011;11540;52.130;5.648;2022-07-29T15:19:29;10.05;;;2.47;;
22746;SDS011;11540;52.130;5.648;2022-07-29T15:21:54;21.48;;;4.28;;
22746;SDS011;11540;52.130;5.648;2022-07-29T15:24:20;5.55;;;1.83;;
22746;SDS011;11540;52.130;5.648;2022-07-29T15:26:46;14.43;;;2.60;;
22746;SDS011;11540;52.130;5.648;2022-07-29T15:29:12;9.25;;;2.25;;
22746;SDS011;11540;52.130;5.648;2022-07-29T15:31:38;3.70;;;1.83;;
22746;SDS011;11540;52.130;5.648;2022-07-29T15:34:04;7.35;;;1.95;;
22746;SDS011;11540;52.130;5.648;2022-07-29T15:36:30;10.27;;;2.05;;
22746;SDS011;11540;52.130;5.648;2022-07-29T15:38:56;4.95;;;2.15;;
22746;SDS011;11540;52.130;5.648;2022-07-29T15:41:21;13.05;;;2.15;;
22746;SDS011;11540;52.130;5.648;2022-07-29T15:43:47;8.95;;;2.20;;
22746;SDS011;11540;52.130;5.648;2022-07-29T15:46:14;12.65;;;2.10;;
22746;SDS011;11540;52.130;5.648;2022-07-29T15:49:00;8.00;;;2.40;;
22746;SDS011;11540;52.130;5.648;2022-07-29T15:51:27;9.13;;;2.60;;
22746;SDS011;11540;52.130;5.648;2022-07-29T15:53:53;9.25;;;2.35;;
22746;SDS011;11540;52.130;5.648;2022-07-29T15:56:18;9.00;;;2.97;;
22746;SDS011;11540;52.130;5.648;2022-07-29T15:58:44;6.75;;;2.45;;
22746;SDS011;11540;52.130;5.648;2022-07-29T16:01:10;15.93;;;3.30;;
22746;SDS011;11540;52.130;5.648;2022-07-29T16:03:35;10.05;;;3.05;;
22746;SDS011;11540;52.130;5.648;2022-07-29T16:06:01;9.13;;;3.00;;
22746;SDS011;11540;52.130;5.648;2022-07-29T16:08:27;10.10;;;3.60;;
22746;SDS011;11540;52.130;5.648;2022-07-29T16:10:52;7.20;;;3.22;;
22746;SDS011;11540;52.130;5.648;2022-07-29T16:13:18;19.08;;;3.72;;
22746;SDS011;11540;52.130;5.648;2022-07-29T16:15:43;7.47;;;3.10;;
22746;SDS011;11540;52.130;5.648;2022-07-29T16:18:09;20.83;;;3.78;;
22746;SDS011;11540;52.130;5.648;2022-07-29T16:20:35;12.60;;;3.38;;
22746;SDS011;11540;52.130;5.648;2022-07-29T16:23:01;15.95;;;3.58;;
22746;SDS011;11540;52.130;5.648;2022-07-29T16:25:27;10.10;;;3.10;;
22746;SDS011;11540;52.130;5.648;2022-07-29T16:27:53;10.38;;;3.65;;
22746;SDS011;11540;52.130;5.648;2022-07-29T16:30:18;7.43;;;2.90;;
22746;SDS011;11540;52.130;5.648;2022-07-29T16:32:44;7.78;;;2.78;;
22746;SDS011;11540;52.130;5.648;2022-07-29T16:35:10;12.80;;;2.80;;
22746;SDS011;11540;52.130;5.648;2022-07-29T16:37:35;5.00;;;2.33;;
22746;SDS011;11540;52.130;5.648;2022-07-29T16:40:03;18.20;;;2.80;;
22746;SDS011;11540;52.130;5.648;2022-07-29T16:42:30;22.38;;;3.00;;